createdAt,value
2018-09-20T00:02:31.265Z,100200.44
2018-09-20T00:05:06.468Z,100198.86
2018-09-20T00:07:41.627Z,100198.04
2018-09-20T00:10:16.493Z,100201.23
2018-09-20T00:12:51.635Z,100199.34
2018-09-20T00:15:26.680Z,100202.31
2018-09-20T00:18:01.704Z,100198.77
2018-09-20T00:20:36.681Z,100188.73
2018-09-20T00:23:11.920Z,100193.84
2018-09-20T00:25:46.981Z,100191.19
2018-09-20T00:28:22.097Z,100190.49
2018-09-20T00:30:57.232Z,100183.58
2018-09-20T00:33:32.386Z,100186.84
2018-09-20T00:36:07.277Z,100184.80
2018-09-20T00:38:42.387Z,100187.42
2018-09-20T00:41:17.572Z,100185.95
2018-09-20T00:43:52.540Z,100191.70
2018-09-20T00:46:27.456Z,100189.73
2018-09-20T00:49:02.512Z,100188.70
2018-09-20T00:51:37.645Z,100182.30
2018-09-20T00:54:12.705Z,100188.98
2018-09-20T00:56:47.857Z,100185.23
2018-09-20T00:59:23.176Z,100183.98
2018-09-20T01:01:58.277Z,100184.64
2018-09-20T01:04:33.580Z,100181.62
2018-09-20T01:07:08.646Z,100181.41
2018-09-20T01:09:50.488Z,100186.64
2018-09-20T01:12:25.696Z,100183.63
2018-09-20T01:15:00.716Z,100178.70
2018-09-20T01:17:35.940Z,100178.42
2018-09-20T01:20:11.123Z,100176.32
2018-09-20T01:22:46.244Z,100172.33
2018-09-20T01:25:21.256Z,100178.81
2018-09-20T01:27:56.364Z,100176.64
2018-09-20T01:30:31.444Z,100183.77
2018-09-20T01:33:06.248Z,100174.64
2018-09-20T01:35:41.430Z,100174.86
2018-09-20T01:38:16.558Z,100176.32
2018-09-20T01:40:51.689Z,100169.62
2018-09-20T01:43:26.696Z,100172.75
2018-09-20T01:46:01.812Z,100174.59
2018-09-20T01:48:37.048Z,100175.74
2018-09-20T01:51:12.228Z,100175.53
2018-09-20T01:53:47.376Z,100170.54
2018-09-20T01:56:22.529Z,100156.78
2018-09-20T01:58:57.669Z,100169.93
2018-09-20T02:01:32.709Z,100173.45
2018-09-20T02:04:08.045Z,100173.45
2018-09-20T02:06:43.200Z,100170.30
2018-09-20T02:09:18.348Z,100173.92
2018-09-20T02:11:53.544Z,100177.70
2018-09-20T02:14:28.660Z,100176.83
2018-09-20T02:17:03.813Z,100171.19
2018-09-20T02:19:38.820Z,100171.93
2018-09-20T02:22:13.949Z,100159.65
2018-09-20T02:24:49.083Z,100175.48
2018-09-20T02:27:24.210Z,100172.45
2018-09-20T02:29:59.189Z,100163.94
2018-09-20T02:32:34.236Z,100174.57
2018-09-20T02:35:09.356Z,100174.34
2018-09-20T02:37:44.521Z,100170.48
2018-09-20T02:40:19.522Z,100162.87
2018-09-20T02:42:54.661Z,100170.88
2018-09-20T02:45:29.692Z,100166.55
2018-09-20T02:48:04.815Z,100172.57
2018-09-20T02:50:39.888Z,100174.89
2018-09-20T02:53:15.118Z,100174.78
2018-09-20T02:55:50.296Z,100174.57
2018-09-20T02:58:25.436Z,100175.18
2018-09-20T03:01:00.434Z,100173.22
2018-09-20T03:03:35.560Z,100178.30
2018-09-20T03:06:10.424Z,100177.65
2018-09-20T03:08:45.657Z,100179.31
2018-09-20T03:11:20.821Z,100171.73
2018-09-20T03:13:56.005Z,100179.12
2018-09-20T03:16:31.124Z,100178.89
2018-09-20T03:19:06.608Z,100181.58
2018-09-20T03:21:41.741Z,100173.67
2018-09-20T03:24:16.880Z,100178.95
2018-09-20T03:26:52.052Z,100179.25
2018-09-20T03:29:27.032Z,100180.34
2018-09-20T03:32:02.168Z,100182.11
2018-09-20T03:34:37.268Z,100184.05
2018-09-20T03:37:12.416Z,100185.99
2018-09-20T03:39:47.372Z,100179.09
2018-09-20T03:42:22.460Z,100179.41
2018-09-20T03:44:57.548Z,100190.00
2018-09-20T03:47:32.704Z,100187.58
2018-09-20T03:50:08.300Z,100181.77
2018-09-20T03:52:43.453Z,100184.52
2018-09-20T03:55:18.537Z,100180.97
2018-09-20T03:57:53.457Z,100187.84
2018-09-20T04:00:28.553Z,100187.52
2018-09-20T04:03:03.660Z,100184.78
2018-09-20T04:05:38.609Z,100186.14
2018-09-20T04:08:13.732Z,100186.67
2018-09-20T04:10:48.905Z,100182.05
2018-09-20T04:13:23.896Z,100187.45
2018-09-20T04:15:59.080Z,100189.66
2018-09-20T04:18:34.084Z,100186.46
2018-09-20T04:21:09.287Z,100186.11
2018-09-20T04:23:44.461Z,100189.08
2018-09-20T04:26:19.499Z,100186.46
2018-09-20T04:28:54.596Z,100187.91
2018-09-20T04:31:30.282Z,100192.66
2018-09-20T04:34:05.299Z,100191.31
2018-09-20T04:36:40.454Z,100197.42
2018-09-20T04:39:15.657Z,100191.48
2018-09-20T04:41:50.748Z,100195.95
2018-09-20T04:44:25.896Z,100196.56
2018-09-20T04:47:01.008Z,100193.45
2018-09-20T04:49:36.089Z,100194.27
2018-09-20T04:52:11.245Z,100195.53
2018-09-20T04:54:46.346Z,100198.23
2018-09-20T04:57:21.476Z,100198.36
2018-09-20T04:59:56.553Z,100198.97
2018-09-20T05:02:31.573Z,100203.73
2018-09-20T05:05:06.710Z,100204.64
2018-09-20T05:07:41.684Z,100198.73
2018-09-20T05:10:16.737Z,100205.16
2018-09-20T05:12:51.908Z,100208.28
2018-09-20T05:15:26.917Z,100204.31
2018-09-20T05:18:02.002Z,100215.86
2018-09-20T05:20:37.117Z,100211.20
2018-09-20T05:23:12.514Z,100211.52
2018-09-20T05:25:47.749Z,100211.31
2018-09-20T05:28:22.893Z,100205.57
2018-09-20T05:30:58.028Z,100201.93
2018-09-20T05:33:33.244Z,100208.90
2018-09-20T05:36:08.296Z,100210.98
2018-09-20T05:38:43.400Z,100219.92
2018-09-20T05:41:18.504Z,100212.83
2018-09-20T05:43:53.705Z,100213.56
2018-09-20T05:46:28.960Z,100219.80
2018-09-20T05:49:03.989Z,100217.30
2018-09-20T05:51:39.374Z,100222.50
2018-09-20T05:54:14.503Z,100218.84
2018-09-20T05:56:49.627Z,100215.61
2018-09-20T05:59:24.841Z,100218.11
2018-09-20T06:02:00.115Z,100218.89
2018-09-20T06:04:35.340Z,100217.25
2018-09-20T06:07:10.459Z,100220.65
2018-09-20T06:09:45.471Z,100224.75
2018-09-20T06:12:20.749Z,100226.02
2018-09-20T06:14:55.965Z,100222.20
2018-09-20T06:17:30.904Z,100222.26
2018-09-20T06:20:06.140Z,100222.11
2018-09-20T06:22:41.297Z,100221.41
2018-09-20T06:25:16.399Z,100223.61
2018-09-20T06:27:51.585Z,100220.31
2018-09-20T06:30:26.586Z,100223.05
2018-09-20T06:33:01.793Z,100225.11
2018-09-20T06:35:36.978Z,100227.93
2018-09-20T06:38:12.080Z,100225.22
2018-09-20T06:40:47.144Z,100227.63
2018-09-20T06:43:22.288Z,100225.15
2018-09-20T06:45:57.336Z,100229.66
2018-09-20T06:48:32.476Z,100226.34
2018-09-20T06:51:07.644Z,100218.02
2018-09-20T06:53:42.720Z,100220.12
2018-09-20T06:56:18.060Z,100216.20
2018-09-20T06:58:53.393Z,100211.30
2018-09-20T07:01:28.580Z,100219.84
2018-09-20T07:04:03.914Z,100215.72
2018-09-20T07:06:38.865Z,100213.33
2018-09-20T07:09:14.792Z,100212.72
2018-09-20T07:11:50.024Z,100208.45
2018-09-20T07:14:25.047Z,100201.56
2018-09-20T07:17:00.273Z,100213.97
2018-09-20T07:19:35.245Z,100207.69
2018-09-20T07:22:10.472Z,100212.49
2018-09-20T07:24:45.693Z,100218.00
2018-09-20T07:27:20.784Z,100222.05
2018-09-20T07:29:55.826Z,100223.09
2018-09-20T07:32:30.945Z,100222.78
2018-09-20T07:35:06.236Z,100213.05
2018-09-20T07:37:41.427Z,100216.59
2018-09-20T07:40:16.513Z,100211.34
2018-09-20T07:42:51.668Z,100214.72
2018-09-20T07:45:26.677Z,100211.05
2018-09-20T07:48:01.720Z,100210.39
2018-09-20T07:50:36.855Z,100212.94
2018-09-20T07:53:12.020Z,100207.61
2018-09-20T07:55:47.029Z,100203.02
2018-09-20T07:58:22.180Z,100208.86
2018-09-20T08:00:57.355Z,100205.56
2018-09-20T08:03:32.844Z,100202.81
2018-09-20T08:06:07.980Z,100207.15
2018-09-20T08:08:43.049Z,100205.94
2018-09-20T08:11:18.180Z,100204.30
2018-09-20T08:13:53.327Z,100200.95
2018-09-20T08:16:28.500Z,100196.80
2018-09-20T08:19:03.664Z,100197.73
2018-09-20T08:21:38.919Z,100206.52
2018-09-20T08:24:14.093Z,100205.17
2018-09-20T08:26:49.216Z,100198.99
2018-09-20T08:29:24.405Z,100198.91
2018-09-20T08:31:59.844Z,100198.22
2018-09-20T08:34:34.921Z,100200.13
2018-09-20T08:37:10.093Z,100196.94
2018-09-20T08:39:45.216Z,100198.07
2018-09-20T08:42:20.408Z,100197.47
2018-09-20T08:44:55.433Z,100189.81
2018-09-20T08:47:30.529Z,100182.93
2018-09-20T08:50:06.137Z,100180.94
2018-09-20T08:52:41.128Z,100178.43
2018-09-20T08:55:16.217Z,100176.26
2018-09-20T08:57:55.689Z,100174.34
2018-09-20T09:00:30.619Z,100167.58
2018-09-20T09:03:05.804Z,100161.30
2018-09-20T09:05:40.833Z,100162.55
2018-09-20T09:08:15.912Z,100156.19
2018-09-20T09:10:50.906Z,100148.66
2018-09-20T09:13:26.044Z,100154.41
2018-09-20T09:16:01.164Z,100153.02
2018-09-20T09:18:36.100Z,100156.02
2018-09-20T09:21:11.168Z,100153.13
2018-09-20T09:23:46.438Z,100152.64
2018-09-20T09:26:21.470Z,100149.31
2018-09-20T09:28:56.632Z,100149.37
2018-09-20T09:31:31.733Z,100150.66
2018-09-20T09:34:06.904Z,100137.23
2018-09-20T09:36:41.900Z,100138.84
2018-09-20T09:39:16.855Z,100137.66
2018-09-20T09:41:51.972Z,100145.72
2018-09-20T09:44:26.980Z,100138.49
2018-09-20T09:47:01.893Z,100144.33
2018-09-20T09:49:36.893Z,100144.89
2018-09-20T09:52:11.961Z,100139.97
2018-09-20T09:54:47.034Z,100132.79
2018-09-20T09:57:22.073Z,100125.00
2018-09-20T09:59:57.232Z,100129.75
2018-09-20T10:02:32.340Z,100127.19
2018-09-20T10:05:07.505Z,100128.72
2018-09-20T10:07:42.629Z,100121.05
2018-09-20T10:10:17.752Z,100116.67
2018-09-20T10:12:52.813Z,100110.36
2018-09-20T10:15:27.929Z,100107.77
2018-09-20T10:18:03.098Z,100101.37
2018-09-20T10:20:38.185Z,100103.96
2018-09-20T10:23:13.225Z,100098.36
2018-09-20T10:25:48.429Z,100089.67
2018-09-20T10:28:23.611Z,100099.84
2018-09-20T10:30:58.689Z,100096.58
2018-09-20T10:33:33.644Z,100094.05
2018-09-20T10:36:08.717Z,100085.45
2018-09-20T10:38:43.820Z,100082.68
2018-09-20T10:41:19.000Z,100084.44
2018-09-20T10:43:54.061Z,100082.53
2018-09-20T10:46:29.064Z,100077.70
2018-09-20T10:49:04.207Z,100074.01
2018-09-20T10:51:39.365Z,100065.56
2018-09-20T10:54:14.486Z,100071.27
2018-09-20T10:56:49.546Z,100065.34
2018-09-20T10:59:24.510Z,100065.34
2018-09-20T11:01:59.651Z,100062.66
2018-09-20T11:04:34.772Z,100056.87
2018-09-20T11:07:09.881Z,100046.78
2018-09-20T11:09:44.894Z,100049.61
2018-09-20T11:12:19.856Z,100035.59
2018-09-20T11:14:55.044Z,100038.13
2018-09-20T11:17:30.178Z,100032.44
2018-09-20T11:20:05.724Z,100025.30
2018-09-20T11:22:40.729Z,100025.04
2018-09-20T11:25:15.928Z,100020.09
2018-09-20T11:27:51.120Z,100025.61
2018-09-20T11:30:26.344Z,100015.59
2018-09-20T11:33:01.304Z,100002.82
2018-09-20T11:35:36.396Z,100009.70
2018-09-20T11:38:11.484Z,100005.33
2018-09-20T11:40:46.656Z,100007.83
2018-09-20T11:43:21.652Z,99996.55
2018-09-20T11:45:56.810Z,99990.80
2018-09-20T11:48:31.956Z,99999.11
2018-09-20T11:51:48.443Z,99992.50
2018-09-20T11:54:23.541Z,99985.34
2018-09-20T11:56:58.661Z,99986.70
2018-09-20T11:59:33.787Z,99986.98
2018-09-20T12:02:08.913Z,99982.83
2018-09-20T12:04:43.903Z,99977.11
2018-09-20T12:07:19.308Z,99976.00
2018-09-20T12:09:54.391Z,99972.44
2018-09-20T12:12:29.605Z,99977.94
2018-09-20T12:15:04.808Z,99974.08
2018-09-20T12:17:39.972Z,99963.87
2018-09-20T12:20:15.104Z,99968.58
2018-09-20T12:22:50.292Z,99961.99
2018-09-20T12:25:25.424Z,99956.46
2018-09-20T12:28:00.521Z,99954.52
2018-09-20T12:30:35.651Z,99946.81
2018-09-20T12:33:10.780Z,99948.70
2018-09-20T12:35:45.948Z,99950.08
2018-09-20T12:38:20.895Z,99940.52
2018-09-20T12:40:55.877Z,99933.88
2018-09-20T12:43:30.793Z,99936.11
2018-09-20T12:46:05.760Z,99930.61
2018-09-20T12:48:40.704Z,99927.28
2018-09-20T12:51:15.607Z,99922.33
2018-09-20T12:53:50.596Z,99922.28
2018-09-20T12:56:25.580Z,99923.44
2018-09-20T12:59:00.732Z,99922.64
2018-09-20T13:01:35.740Z,99917.14
2018-09-20T13:04:10.920Z,99918.81
2018-09-20T13:06:46.026Z,99920.75
2018-09-20T13:09:21.177Z,99920.72
2018-09-20T13:11:56.173Z,99924.31
2018-09-20T13:14:31.236Z,99916.06
2018-09-20T13:17:07.084Z,99917.97
2018-09-20T13:19:42.230Z,99910.84
2018-09-20T13:22:17.259Z,99918.50
2018-09-20T13:24:52.432Z,99910.25
2018-09-20T13:27:27.581Z,99908.33
2018-09-20T13:30:02.629Z,99905.86
2018-09-20T13:32:37.629Z,99902.00
2018-09-20T13:35:12.690Z,99903.92
2018-09-20T13:37:47.794Z,99900.88
2018-09-20T13:40:23.013Z,99907.94
2018-09-20T13:42:58.101Z,99907.14
2018-09-20T13:45:33.313Z,99899.44
2018-09-20T13:48:08.378Z,99894.50
2018-09-20T13:50:43.470Z,99888.73
2018-09-20T13:53:18.565Z,99890.39
2018-09-20T13:55:53.697Z,99887.63
2018-09-20T13:58:28.797Z,99891.73
2018-09-20T14:01:04.033Z,99885.45
2018-09-20T14:03:39.052Z,99880.77
2018-09-20T14:06:14.591Z,99882.42
2018-09-20T14:08:49.529Z,99880.77
2018-09-20T14:11:24.503Z,99877.21
2018-09-20T14:13:59.576Z,99877.76
2018-09-20T14:16:34.681Z,99870.89
2018-09-20T14:19:09.780Z,99876.11
2018-09-20T14:21:44.906Z,99877.22
2018-09-20T14:24:20.018Z,99870.37
2018-09-20T14:26:55.073Z,99869.03
2018-09-20T14:29:30.178Z,99867.38
2018-09-20T14:32:05.291Z,99861.00
2018-09-20T14:34:40.412Z,99864.08
2018-09-20T14:37:15.381Z,99854.77
2018-09-20T14:39:50.465Z,99853.64
2018-09-20T14:42:26.129Z,99850.63
2018-09-20T14:45:01.218Z,99848.72
2018-09-20T14:47:36.087Z,99845.12
2018-09-20T14:50:11.285Z,99838.82
2018-09-20T14:52:46.250Z,99837.73
2018-09-20T14:55:21.393Z,99833.61
2018-09-20T14:57:56.483Z,99827.55
2018-09-20T15:00:31.552Z,99825.89
2018-09-20T15:03:06.626Z,99821.23
2018-09-20T15:05:41.562Z,99820.14
2018-09-20T15:08:17.007Z,99816.56
2018-09-20T15:10:52.060Z,99819.88
2018-09-20T15:13:26.958Z,99818.77
2018-09-20T15:16:02.041Z,99823.98
2018-09-20T15:18:37.284Z,99834.16
2018-09-20T15:21:12.300Z,99829.47
2018-09-20T15:23:47.445Z,99827.56
2018-09-20T15:26:22.804Z,99827.56
2018-09-20T15:28:57.952Z,99824.50
2018-09-20T15:31:33.064Z,99826.14
2018-09-20T15:34:08.532Z,99822.30
2018-09-20T15:36:43.638Z,99820.07
2018-09-20T15:39:18.617Z,99824.46
2018-09-20T15:41:53.760Z,99810.70
2018-09-20T15:44:28.955Z,99814.52
2018-09-20T15:47:04.089Z,99814.25
2018-09-20T15:49:38.946Z,99807.41
2018-09-20T15:52:14.105Z,99803.02
2018-09-20T15:54:49.214Z,99797.28
2018-09-20T15:57:24.204Z,99789.89
2018-09-20T15:59:59.344Z,99792.89
2018-09-20T16:02:34.457Z,99788.25
2018-09-20T16:05:09.637Z,99786.58
2018-09-20T16:07:44.632Z,99786.84
2018-09-20T16:10:19.786Z,99780.52
2018-09-20T16:12:54.901Z,99770.38
2018-09-20T16:15:30.027Z,99776.16
2018-09-20T16:18:05.031Z,99770.36
2018-09-20T16:20:40.186Z,99765.70
2018-09-20T16:23:15.313Z,99767.86
2018-09-20T16:25:50.481Z,99768.69
2018-09-20T16:28:37.684Z,99764.22
2018-09-20T16:31:26.300Z,99765.04
2018-09-20T16:34:26.204Z,99761.72
2018-09-20T16:37:11.903Z,99768.25
2018-09-20T16:39:48.732Z,99764.37
2018-09-20T16:42:26.400Z,99759.13
2018-09-20T16:45:01.339Z,99756.36
2018-09-20T16:47:36.436Z,99754.88
2018-09-20T16:50:11.444Z,99752.91
2018-09-20T16:52:46.590Z,99757.84
2018-09-20T16:55:21.638Z,99751.20
2018-09-20T16:57:56.898Z,99758.03
2018-09-20T17:00:31.908Z,99748.87
2018-09-20T17:03:07.081Z,99743.58
2018-09-20T17:05:42.257Z,99747.91
2018-09-20T17:08:17.240Z,99745.67
2018-09-20T17:10:52.316Z,99743.97
2018-09-20T17:13:27.440Z,99738.94
2018-09-20T17:16:02.509Z,99731.23
2018-09-20T17:18:37.569Z,99728.98
2018-09-20T17:21:12.681Z,99730.17
2018-09-20T17:23:47.661Z,99730.38
2018-09-20T17:26:22.829Z,99730.53
2018-09-20T17:28:57.882Z,99730.50
2018-09-20T17:31:32.869Z,99728.84
2018-09-20T17:34:07.985Z,99725.84
2018-09-20T17:36:43.518Z,99724.10
2018-09-20T17:39:19.627Z,99722.39
2018-09-20T17:41:56.665Z,99724.80
2018-09-20T17:44:31.660Z,99721.58
2018-09-20T17:47:06.721Z,99726.69
2018-09-20T17:49:41.710Z,99724.48
2018-09-20T17:52:17.112Z,99725.30
2018-09-20T17:54:52.750Z,99720.61
2018-09-20T17:57:28.504Z,99729.96
2018-09-20T18:00:03.505Z,99723.31
2018-09-20T18:02:38.589Z,99726.42
2018-09-20T18:05:13.550Z,99721.68
2018-09-20T18:07:48.764Z,99723.61
2018-09-20T18:10:23.909Z,99725.66
2018-09-20T18:12:58.869Z,99720.84
2018-09-20T18:15:33.981Z,99721.39
2018-09-20T18:18:09.183Z,99724.63
2018-09-20T18:20:44.240Z,99723.46
2018-09-20T18:23:19.237Z,99723.94
2018-09-20T18:25:54.307Z,99725.41
2018-09-20T18:28:29.464Z,99722.89
2018-09-20T18:31:04.590Z,99720.37
2018-09-20T18:33:39.720Z,99718.34
2018-09-20T18:36:14.776Z,99710.58
2018-09-20T18:38:50.009Z,99708.20
2018-09-20T18:41:25.142Z,99710.48
2018-09-20T18:44:00.277Z,99703.45
2018-09-20T18:46:35.281Z,99706.73
2018-09-20T18:49:10.202Z,99700.97
2018-09-20T18:51:45.250Z,99701.89
2018-09-20T18:54:20.260Z,99700.33
2018-09-20T18:56:55.418Z,99692.70
2018-09-20T18:59:30.284Z,99702.24
2018-09-20T19:02:05.373Z,99698.95
2018-09-20T19:04:40.509Z,99696.43
2018-09-20T19:07:15.453Z,99692.20
2018-09-20T19:09:50.610Z,99692.05
2018-09-20T19:12:25.724Z,99684.17
2018-09-20T19:15:00.764Z,99685.70
2018-09-20T19:17:35.741Z,99687.26
2018-09-20T19:20:10.817Z,99681.70
2018-09-20T19:22:45.968Z,99684.27
2018-09-20T19:25:21.429Z,99686.60
2018-09-20T19:27:56.393Z,99688.16
2018-09-20T19:30:31.575Z,99683.67
2018-09-20T19:33:06.575Z,99680.66
2018-09-20T19:35:41.680Z,99682.08
2018-09-20T19:38:16.749Z,99675.27
2018-09-20T19:40:51.826Z,99672.44
2018-09-20T19:43:26.984Z,99669.55
2018-09-20T19:46:01.997Z,99671.27
2018-09-20T19:48:37.212Z,99668.70
2018-09-20T19:51:12.328Z,99662.74
2018-09-20T19:53:47.456Z,99665.77
2018-09-20T19:56:22.694Z,99663.20
2018-09-20T19:58:58.169Z,99657.42
2018-09-20T20:01:33.352Z,99657.32
2018-09-20T20:04:08.465Z,99651.66
2018-09-20T20:06:43.576Z,99649.59
2018-09-20T20:09:18.633Z,99647.61
2018-09-20T20:11:53.642Z,99646.43
2018-09-20T20:14:28.569Z,99642.19
2018-09-20T20:17:03.703Z,99640.58
2018-09-20T20:19:38.803Z,99645.91
2018-09-20T20:22:13.857Z,99634.53
2018-09-20T20:24:48.778Z,99637.09
2018-09-20T20:27:23.841Z,99636.52
2018-09-20T20:29:58.981Z,99629.82
2018-09-20T20:32:34.108Z,99627.16
2018-09-20T20:35:09.290Z,99624.66
2018-09-20T20:37:44.416Z,99625.77
2018-09-20T20:40:19.592Z,99616.00
2018-09-20T20:42:54.707Z,99611.86
2018-09-20T20:45:29.854Z,99605.91
2018-09-20T20:48:11.280Z,99602.14
2018-09-20T20:50:46.480Z,99596.19
2018-09-20T20:53:21.529Z,99601.84
2018-09-20T20:55:56.683Z,99605.61
2018-09-20T20:58:31.799Z,99599.89
2018-09-20T21:01:06.877Z,99591.89
2018-09-20T21:03:42.141Z,99601.61
2018-09-20T21:06:17.749Z,99595.34
2018-09-20T21:08:52.867Z,99599.83
2018-09-20T21:11:27.969Z,99598.89
2018-09-20T21:14:02.868Z,99597.12
2018-09-20T21:16:37.976Z,99591.75
2018-09-20T21:19:13.093Z,99588.09
2018-09-20T21:21:48.097Z,99588.80
2018-09-20T21:24:22.966Z,99583.90
2018-09-20T21:26:58.025Z,99575.02
2018-09-20T21:29:33.132Z,99572.59
2018-09-20T21:32:08.213Z,99570.59
2018-09-20T21:34:43.325Z,99563.68
2018-09-20T21:37:18.484Z,99560.17
2018-09-20T21:39:53.712Z,99553.78
2018-09-20T21:42:28.665Z,99555.34
2018-09-20T21:45:03.845Z,99552.86
2018-09-20T21:47:38.980Z,99547.30
2018-09-20T21:50:14.033Z,99541.73
2018-09-20T21:52:49.253Z,99536.54
2018-09-20T21:55:24.393Z,99531.23
2018-09-20T21:57:59.305Z,99522.51
2018-09-20T22:00:34.309Z,99520.25
2018-09-20T22:03:09.529Z,99510.27
2018-09-20T22:05:44.531Z,99512.20
2018-09-20T22:08:19.668Z,99512.01
2018-09-20T22:10:54.785Z,99506.13
2018-09-20T22:13:29.864Z,99506.19
2018-09-20T22:16:05.090Z,99500.04
2018-09-20T22:18:40.092Z,99501.40
2018-09-20T22:21:15.054Z,99497.27
2018-09-20T22:23:50.197Z,99496.53
2018-09-20T22:26:25.492Z,99498.51
2018-09-20T22:29:00.621Z,99494.83
2018-09-20T22:31:35.708Z,99494.90
2018-09-20T22:34:10.810Z,99492.00
2018-09-20T22:36:45.717Z,99486.99
2018-09-20T22:39:20.908Z,99479.84
2018-09-20T22:41:56.064Z,99481.14
2018-09-20T22:44:31.220Z,99472.66
2018-09-20T22:47:06.651Z,99470.94
2018-09-20T22:49:41.790Z,99465.14
2018-09-20T22:52:16.881Z,99468.81
2018-09-20T22:54:52.051Z,99448.31
2018-09-20T22:57:27.140Z,99457.03
2018-09-20T23:00:02.185Z,99451.47
2018-09-20T23:02:37.288Z,99451.30
2018-09-20T23:05:12.552Z,99451.90
2018-09-20T23:07:47.693Z,99443.94
2018-09-20T23:10:22.889Z,99447.22
2018-09-20T23:12:58.008Z,99445.41
2018-09-20T23:15:33.133Z,99447.88
2018-09-20T23:18:08.248Z,99439.91
2018-09-20T23:20:43.776Z,99439.42
2018-09-20T23:23:18.908Z,99438.91
2018-09-20T23:25:53.956Z,99432.31
2018-09-20T23:28:29.083Z,99423.89
2018-09-20T23:31:04.256Z,99428.17
2018-09-20T23:33:39.232Z,99419.70
2018-09-20T23:36:14.324Z,99421.00
2018-09-20T23:38:49.491Z,99416.73
2018-09-20T23:41:24.649Z,99416.73
2018-09-20T23:43:59.795Z,99418.66
2018-09-20T23:46:34.908Z,99415.02
2018-09-20T23:49:10.099Z,99414.53
2018-09-20T23:51:45.234Z,99405.48
2018-09-20T23:54:20.285Z,99402.95
2018-09-20T23:56:55.421Z,99406.92
2018-09-20T23:59:30.362Z,99402.84
